createdAt,value
2022-11-07T00:02:11.842Z,6.45
2022-11-07T00:05:14.119Z,8.52
2022-11-07T00:08:16.321Z,6.10
2022-11-07T00:11:19.581Z,6.78
2022-11-07T00:14:21.782Z,6.15
2022-11-07T00:17:23.916Z,7.55
2022-11-07T00:20:26.135Z,6.18
2022-11-07T00:23:28.665Z,5.63
2022-11-07T00:26:30.893Z,4.82
2022-11-07T00:29:33.124Z,4.70
2022-11-07T00:32:35.321Z,4.55
2022-11-07T00:35:44.179Z,5.45
2022-11-07T00:38:46.394Z,5.07
2022-11-07T00:41:49.518Z,5.28
2022-11-07T00:44:51.671Z,4.35
2022-11-07T00:47:54.729Z,4.53
2022-11-07T00:50:56.925Z,5.35
2022-11-07T00:53:59.095Z,4.15
2022-11-07T00:57:01.389Z,4.63
2022-11-07T01:00:05.485Z,4.10
2022-11-07T01:03:26.375Z,4.53
2022-11-07T01:06:31.043Z,3.65
2022-11-07T01:09:33.310Z,4.43
2022-11-07T01:12:36.259Z,4.32
2022-11-07T01:15:41.068Z,4.63
2022-11-07T01:18:43.349Z,4.30
2022-11-07T01:21:45.788Z,4.20
2022-11-07T01:24:47.937Z,4.40
2022-11-07T01:27:50.131Z,4.40
2022-11-07T01:30:52.311Z,4.97
2022-11-07T01:33:55.122Z,4.38
2022-11-07T01:36:57.384Z,4.03
2022-11-07T01:39:59.539Z,5.43
2022-11-07T01:43:01.684Z,5.75
2022-11-07T01:46:03.890Z,5.03
2022-11-07T01:49:17.513Z,4.93
2022-11-07T01:52:29.050Z,4.25
2022-11-07T01:55:35.220Z,5.10
2022-11-07T01:58:37.345Z,7.20
2022-11-07T02:01:40.084Z,7.68
2022-11-07T02:04:42.984Z,6.47
2022-11-07T02:07:46.322Z,4.95
2022-11-07T02:10:49.179Z,5.60
2022-11-07T02:13:51.350Z,5.65
2022-11-07T02:16:54.427Z,5.85
2022-11-07T02:19:57.266Z,8.20
2022-11-07T02:23:05.873Z,8.38
2022-11-07T02:26:09.248Z,7.28
2022-11-07T02:29:13.069Z,7.65
2022-11-07T02:32:15.313Z,7.30
2022-11-07T02:35:39.732Z,8.20
2022-11-07T02:38:42.393Z,9.65
2022-11-07T02:41:45.214Z,8.43
2022-11-07T02:44:48.260Z,9.85
2022-11-07T02:47:50.506Z,9.25
2022-11-07T02:50:52.669Z,8.52
2022-11-07T02:53:54.843Z,10.25
2022-11-07T02:56:56.988Z,10.43
2022-11-07T02:59:59.183Z,7.82
2022-11-07T03:03:01.364Z,10.00
2022-11-07T03:06:03.637Z,8.77
2022-11-07T03:09:05.796Z,9.68
2022-11-07T03:12:08.266Z,11.50
2022-11-07T03:15:11.939Z,10.65
2022-11-07T03:18:14.206Z,9.88
2022-11-07T03:21:16.433Z,9.15
2022-11-07T03:24:18.691Z,9.68
2022-11-07T03:27:20.869Z,11.10
2022-11-07T03:30:23.093Z,10.60
2022-11-07T03:33:25.261Z,11.35
2022-11-07T03:36:27.669Z,10.15
2022-11-07T03:39:29.968Z,12.20
2022-11-07T03:42:37.559Z,13.02
2022-11-07T03:45:39.669Z,11.40
2022-11-07T03:48:42.556Z,11.35
2022-11-07T03:51:44.669Z,9.98
2022-11-07T03:54:46.793Z,13.70
2022-11-07T03:57:49.211Z,13.20
2022-11-07T04:00:51.540Z,11.82
2022-11-07T04:03:56.253Z,12.88
2022-11-07T04:06:58.638Z,11.75
2022-11-07T04:10:00.853Z,13.90
2022-11-07T04:13:21.416Z,12.13
2022-11-07T04:16:42.067Z,12.38
2022-11-07T04:19:44.299Z,12.02
2022-11-07T04:22:46.550Z,12.65
2022-11-07T04:26:08.970Z,11.18
2022-11-07T04:29:11.086Z,10.68
2022-11-07T04:32:13.277Z,12.85
2022-11-07T04:35:16.236Z,11.20
2022-11-07T04:38:18.430Z,9.82
2022-11-07T04:41:23.304Z,9.80
2022-11-07T04:44:25.658Z,11.80
2022-11-07T04:47:28.067Z,12.98
2022-11-07T04:50:30.491Z,9.48
2022-11-07T04:53:32.656Z,11.50
2022-11-07T04:56:34.812Z,8.88
2022-11-07T04:59:37.146Z,11.23
2022-11-07T05:02:39.422Z,11.00
2022-11-07T05:05:41.693Z,10.02
2022-11-07T05:08:43.898Z,9.82
2022-11-07T05:11:47.076Z,10.40
2022-11-07T05:14:49.228Z,8.45
2022-11-07T05:17:51.339Z,8.13
2022-11-07T05:20:53.477Z,10.23
2022-11-07T05:23:55.615Z,8.52
2022-11-07T05:26:57.750Z,10.88
2022-11-07T05:29:59.892Z,9.38
2022-11-07T05:33:02.047Z,8.25
2022-11-07T05:36:15.949Z,10.68
2022-11-07T05:39:18.197Z,8.15
2022-11-07T05:42:20.375Z,11.68
2022-11-07T05:45:22.566Z,8.32
2022-11-07T05:48:24.809Z,9.00
2022-11-07T05:51:26.920Z,8.35
2022-11-07T05:54:31.877Z,9.65
2022-11-07T05:57:34.006Z,8.27
2022-11-07T06:00:39.437Z,7.68
2022-11-07T06:03:41.676Z,6.82
2022-11-07T06:06:43.896Z,9.57
2022-11-07T06:09:46.163Z,6.88
2022-11-07T06:12:56.487Z,7.50
2022-11-07T06:15:58.652Z,9.32
2022-11-07T06:19:00.808Z,7.22
2022-11-07T06:22:03.064Z,7.05
2022-11-07T06:25:05.589Z,7.45
2022-11-07T06:28:11.012Z,7.32
2022-11-07T06:31:13.366Z,7.32
2022-11-07T06:34:15.580Z,6.00
2022-11-07T06:37:17.754Z,7.38
2022-11-07T06:40:19.948Z,5.43
2022-11-07T06:43:22.135Z,6.38
2022-11-07T06:46:25.358Z,6.68
2022-11-07T06:49:27.742Z,5.93
2022-11-07T06:52:29.957Z,6.13
2022-11-07T06:55:34.280Z,5.75
2022-11-07T06:58:36.680Z,6.40
2022-11-07T07:01:39.209Z,7.05
2022-11-07T07:04:41.490Z,7.55
2022-11-07T07:07:43.698Z,7.13
2022-11-07T07:10:46.492Z,5.22
2022-11-07T07:13:48.742Z,6.97
2022-11-07T07:16:50.927Z,6.50
2022-11-07T07:19:53.173Z,6.35
2022-11-07T07:23:00.180Z,6.85
2022-11-07T07:26:07.022Z,7.82
2022-11-07T07:29:09.136Z,5.50
2022-11-07T07:32:11.309Z,6.75
2022-11-07T07:35:13.473Z,6.18
2022-11-07T07:38:15.874Z,6.38
2022-11-07T07:41:19.157Z,6.65
2022-11-07T07:44:21.364Z,4.88
2022-11-07T07:47:23.561Z,5.38
2022-11-07T07:50:25.766Z,4.68
2022-11-07T07:53:27.918Z,8.38
2022-11-07T07:56:30.025Z,5.70
2022-11-07T07:59:32.198Z,5.15
2022-11-07T08:02:34.399Z,5.65
2022-11-07T08:05:38.009Z,5.43
2022-11-07T08:08:40.148Z,6.53
2022-11-07T08:11:42.497Z,6.32
2022-11-07T08:14:44.643Z,5.97
2022-11-07T08:17:47.141Z,6.82
2022-11-07T08:20:54.417Z,5.15
2022-11-07T08:23:56.804Z,7.47
2022-11-07T08:26:58.930Z,7.35
2022-11-07T08:30:01.718Z,9.82
2022-11-07T08:33:04.365Z,7.78
2022-11-07T08:36:07.684Z,8.30
2022-11-07T08:39:09.819Z,6.55
2022-11-07T08:42:12.058Z,7.78
2022-11-07T08:45:15.235Z,7.05
2022-11-07T08:48:18.367Z,8.20
2022-11-07T08:51:20.589Z,7.25
2022-11-07T08:54:22.818Z,10.73
2022-11-07T08:57:25.012Z,10.52
2022-11-07T09:00:27.656Z,7.75
2022-11-07T09:06:52.070Z,10.88
2022-11-07T09:09:54.237Z,10.57
2022-11-07T09:12:56.463Z,9.20
2022-11-07T09:15:59.818Z,9.02
2022-11-07T09:19:01.955Z,9.50
2022-11-07T09:22:04.134Z,10.57
2022-11-07T09:25:06.741Z,11.68
2022-11-07T09:28:09.126Z,10.43
2022-11-07T09:31:11.286Z,10.50
2022-11-07T09:34:13.496Z,9.70
2022-11-07T09:37:15.805Z,10.00
2022-11-07T09:40:40.618Z,8.88
2022-11-07T09:44:05.188Z,9.30
2022-11-07T09:47:19.311Z,12.32
2022-11-07T09:50:36.101Z,10.55
2022-11-07T09:53:46.172Z,9.57
2022-11-07T09:56:48.481Z,9.07
2022-11-07T09:59:58.921Z,10.90
2022-11-07T10:03:02.493Z,11.50
2022-11-07T10:06:24.385Z,8.77
2022-11-07T10:09:38.321Z,9.27
2022-11-07T10:13:21.566Z,10.77
2022-11-07T10:16:35.373Z,9.50
2022-11-07T10:20:13.365Z,9.75
2022-11-07T10:23:31.380Z,11.07
2022-11-07T10:26:33.865Z,9.73
2022-11-07T10:29:45.422Z,10.43
2022-11-07T10:32:56.746Z,9.68
2022-11-07T10:36:05.119Z,9.60
2022-11-07T10:39:16.421Z,10.90
2022-11-07T10:42:26.165Z,10.73
2022-11-07T10:45:29.136Z,10.20
2022-11-07T10:48:33.324Z,9.77
2022-11-07T10:51:40.938Z,10.27
2022-11-07T10:54:44.985Z,11.48
2022-11-07T10:58:04.554Z,8.70
2022-11-07T11:01:09.309Z,11.00
2022-11-07T11:04:28.322Z,11.32
2022-11-07T11:07:48.699Z,8.88
2022-11-07T11:10:50.999Z,9.13
2022-11-07T11:14:13.244Z,9.82
2022-11-07T11:17:28.702Z,9.10
2022-11-07T11:20:38.821Z,11.80
2022-11-07T11:23:44.383Z,9.63
2022-11-07T11:26:50.347Z,9.32
2022-11-07T11:30:06.662Z,10.77
2022-11-07T11:33:21.554Z,8.73
2022-11-07T11:36:29.547Z,10.10
2022-11-07T11:39:59.530Z,9.23
2022-11-07T11:43:24.772Z,9.63
2022-11-07T11:46:37.697Z,9.52
2022-11-07T11:50:06.419Z,9.52
2022-11-07T11:53:15.761Z,9.82
2022-11-07T11:56:24.291Z,10.20
2022-11-07T11:59:41.868Z,11.93
2022-11-07T12:03:02.771Z,9.75
2022-11-07T12:06:15.645Z,8.32
2022-11-07T12:09:45.587Z,9.07
2022-11-07T12:13:06.307Z,7.35
2022-11-07T12:16:28.689Z,8.05
2022-11-07T12:19:39.922Z,8.32
2022-11-07T12:23:11.148Z,8.60
2022-11-07T12:26:32.231Z,7.55
2022-11-07T12:30:05.778Z,7.93
2022-11-07T12:33:17.162Z,9.00
2022-11-07T12:36:35.064Z,7.55
2022-11-07T12:40:04.812Z,9.20
2022-11-07T12:43:20.706Z,7.60
2022-11-07T12:46:41.225Z,9.95
2022-11-07T12:50:01.289Z,10.85
2022-11-07T12:56:19.667Z,7.75
2022-11-07T12:59:26.490Z,9.23
2022-11-07T13:02:58.742Z,8.23
2022-11-07T13:06:37.736Z,6.78
2022-11-07T13:10:13.794Z,9.05
2022-11-07T13:13:38.611Z,7.50
2022-11-07T13:16:52.063Z,7.45
2022-11-07T13:20:05.722Z,8.32
2022-11-07T13:23:15.879Z,6.55
2022-11-07T13:26:46.613Z,9.55
2022-11-07T13:29:50.419Z,7.07
2022-11-07T13:32:52.661Z,7.85
2022-11-07T13:36:10.813Z,7.57
2022-11-07T13:39:14.670Z,7.78
2022-11-07T13:42:18.759Z,9.35
2022-11-07T13:45:41.635Z,6.93
2022-11-07T13:49:14.478Z,8.27
2022-11-07T13:52:25.808Z,7.72
2022-11-07T13:55:44.224Z,6.43
2022-11-07T13:58:48.294Z,7.72
2022-11-07T14:01:56.109Z,7.68
2022-11-07T14:05:17.132Z,7.03
2022-11-07T14:08:29.116Z,6.63
2022-11-07T14:11:35.344Z,7.43
2022-11-07T14:14:37.539Z,6.20
2022-11-07T14:17:41.052Z,7.13
2022-11-07T14:20:53.572Z,6.88
2022-11-07T14:23:56.113Z,6.80
2022-11-07T14:27:08.626Z,6.38
2022-11-07T14:30:16.553Z,7.13
2022-11-07T14:33:22.054Z,6.20
2022-11-07T14:36:26.664Z,6.75
2022-11-07T14:39:32.036Z,7.72
2022-11-07T14:42:34.296Z,7.03
2022-11-07T14:46:10.827Z,6.95
2022-11-07T14:48:59.119Z,6.85
2022-11-07T14:52:01.432Z,6.38
2022-11-07T14:55:09.235Z,7.07
2022-11-07T14:58:12.669Z,6.18
2022-11-07T15:01:25.872Z,7.43
2022-11-07T15:04:38.064Z,6.90
2022-11-07T15:07:47.974Z,5.75
2022-11-07T15:11:15.286Z,6.55
2022-11-07T15:14:37.759Z,6.40
2022-11-07T15:17:46.902Z,6.40
2022-11-07T15:20:58.453Z,7.43
2022-11-07T15:24:21.458Z,6.75
2022-11-07T15:27:34.188Z,7.00
2022-11-07T15:30:36.475Z,5.70
2022-11-07T15:33:38.638Z,6.40
2022-11-07T15:36:41.354Z,6.55
2022-11-07T15:39:43.691Z,8.13
2022-11-07T15:42:45.851Z,7.47
2022-11-07T15:45:49.463Z,8.80
2022-11-07T15:48:51.828Z,6.82
2022-11-07T15:51:54.062Z,6.38
2022-11-07T15:54:56.207Z,9.10
2022-11-07T15:57:58.386Z,7.78
2022-11-07T16:01:01.067Z,7.57
2022-11-07T16:04:03.443Z,8.43
2022-11-07T16:07:08.349Z,8.27
2022-11-07T16:10:28.386Z,7.63
2022-11-07T16:13:30.627Z,7.85
2022-11-07T16:16:34.528Z,7.05
2022-11-07T16:19:36.942Z,8.65
2022-11-07T16:22:39.054Z,9.18
2022-11-07T16:25:42.757Z,8.18
2022-11-07T16:28:46.180Z,8.18
2022-11-07T16:31:48.421Z,10.82
2022-11-07T16:34:50.667Z,10.73
2022-11-07T16:37:53.105Z,7.53
2022-11-07T16:40:55.318Z,10.85
2022-11-07T16:43:57.518Z,8.45
2022-11-07T16:47:05.786Z,9.07
2022-11-07T16:50:08.243Z,11.32
2022-11-07T16:53:13.109Z,8.98
2022-11-07T16:56:27.308Z,8.57
2022-11-07T16:59:29.481Z,11.85
2022-11-07T17:02:31.867Z,11.13
2022-11-07T17:05:34.139Z,11.40
2022-11-07T17:08:43.914Z,11.65
2022-11-07T17:11:46.677Z,12.15
2022-11-07T17:14:49.091Z,13.10
2022-11-07T17:17:54.120Z,13.23
2022-11-07T17:21:00.107Z,10.68
2022-11-07T17:24:03.032Z,12.23
2022-11-07T17:27:18.436Z,13.32
2022-11-07T17:30:20.785Z,10.57
2022-11-07T17:33:22.994Z,13.05
2022-11-07T17:36:37.411Z,12.90
2022-11-07T17:39:40.043Z,14.10
2022-11-07T17:42:42.212Z,9.90
2022-11-07T17:45:44.395Z,10.43
2022-11-07T17:48:47.829Z,9.90
2022-11-07T17:51:52.856Z,10.77
2022-11-07T17:54:55.052Z,14.35
2022-11-07T17:57:57.259Z,10.45
2022-11-07T18:00:59.607Z,13.70
2022-11-07T18:04:02.595Z,11.23
2022-11-07T18:07:04.959Z,10.48
2022-11-07T18:10:08.327Z,11.27
2022-11-07T18:13:10.511Z,13.55
2022-11-07T18:16:18.717Z,12.35
2022-11-07T18:19:21.261Z,10.95
2022-11-07T18:22:23.570Z,10.55
2022-11-07T18:25:25.760Z,9.25
2022-11-07T18:28:27.965Z,11.40
2022-11-07T18:31:30.338Z,11.70
2022-11-07T18:34:32.600Z,11.70
2022-11-07T18:37:35.111Z,12.52
2022-11-07T18:40:37.245Z,12.80
2022-11-07T18:43:39.716Z,12.18
2022-11-07T18:46:43.126Z,15.82
2022-11-07T18:49:45.350Z,14.07
2022-11-07T18:52:47.528Z,12.02
2022-11-07T18:56:04.753Z,13.10
2022-11-07T18:59:07.118Z,14.20
2022-11-07T19:02:09.851Z,14.63
2022-11-07T19:05:12.175Z,15.98
2022-11-07T19:08:15.105Z,10.35
2022-11-07T19:11:20.400Z,13.20
2022-11-07T19:14:22.875Z,12.95
2022-11-07T19:17:26.222Z,11.05
2022-11-07T19:20:28.396Z,13.20
2022-11-07T19:23:31.478Z,13.50
2022-11-07T19:26:34.618Z,12.55
2022-11-07T19:29:36.857Z,11.05
2022-11-07T19:32:39.819Z,11.93
2022-11-07T19:35:42.561Z,13.38
2022-11-07T19:38:45.722Z,13.18
2022-11-07T19:41:48.122Z,13.40
2022-11-07T19:44:55.483Z,16.20
2022-11-07T19:47:58.686Z,16.98
2022-11-07T19:51:05.434Z,13.98
2022-11-07T19:54:08.627Z,14.20
2022-11-07T19:57:11.110Z,12.68
2022-11-07T20:00:13.686Z,14.20
2022-11-07T20:03:16.233Z,14.63
2022-11-07T20:06:32.033Z,14.20
2022-11-07T20:09:34.302Z,13.13
2022-11-07T20:12:36.539Z,14.57
2022-11-07T20:15:41.856Z,13.93
2022-11-07T20:18:44.836Z,11.75
2022-11-07T20:21:47.454Z,17.77
2022-11-07T20:24:50.790Z,15.70
2022-11-07T20:27:52.945Z,14.73
2022-11-07T20:30:56.075Z,16.83
2022-11-07T20:34:00.356Z,12.70
2022-11-07T20:37:02.509Z,15.15
2022-11-07T20:40:05.871Z,12.82
2022-11-07T20:43:08.873Z,13.85
2022-11-07T20:46:15.191Z,14.68
2022-11-07T20:49:18.489Z,13.13
2022-11-07T20:52:20.665Z,16.38
2022-11-07T20:55:22.857Z,14.50
2022-11-07T20:58:25.019Z,14.88
2022-11-07T21:01:37.400Z,16.60
2022-11-07T21:04:56.315Z,14.15
2022-11-07T21:08:02.129Z,12.65
2022-11-07T21:11:04.317Z,14.23
2022-11-07T21:14:06.572Z,13.40
2022-11-07T21:17:09.899Z,13.60
2022-11-07T21:20:12.355Z,14.45
2022-11-07T21:23:16.062Z,15.80
2022-11-07T21:26:31.891Z,13.52
2022-11-07T21:29:34.106Z,13.90
2022-11-07T21:32:36.386Z,16.00
2022-11-07T21:35:44.422Z,13.98
2022-11-07T21:38:47.307Z,14.32
2022-11-07T21:41:49.644Z,14.18
2022-11-07T21:44:51.805Z,16.48
2022-11-07T21:47:54.177Z,15.65
2022-11-07T21:50:56.365Z,14.98
2022-11-07T21:54:00.209Z,15.88
2022-11-07T21:57:02.433Z,15.45
2022-11-07T22:00:05.994Z,15.85
2022-11-07T22:03:08.154Z,14.63
2022-11-07T22:06:10.561Z,14.75
2022-11-07T22:09:18.668Z,15.80
2022-11-07T22:12:20.845Z,13.45
2022-11-07T22:15:22.980Z,14.27
2022-11-07T22:18:25.300Z,13.52
2022-11-07T22:21:27.962Z,16.90
2022-11-07T22:24:30.253Z,13.43
2022-11-07T22:27:32.661Z,15.45
2022-11-07T22:30:34.830Z,13.45
2022-11-07T22:33:37.334Z,14.90
2022-11-07T22:36:39.593Z,14.00
2022-11-07T22:39:41.823Z,13.95
2022-11-07T22:42:43.997Z,14.85
2022-11-07T22:45:46.125Z,14.02
2022-11-07T22:48:48.990Z,11.30
2022-11-07T22:51:51.370Z,12.70
2022-11-07T22:54:53.519Z,11.88
2022-11-07T22:57:55.847Z,13.57
2022-11-07T23:00:58.106Z,12.82
2022-11-07T23:04:00.467Z,13.50
2022-11-07T23:07:02.744Z,11.15
2022-11-07T23:10:05.653Z,11.40
2022-11-07T23:13:07.927Z,10.90
2022-11-07T23:16:20.370Z,13.93
2022-11-07T23:19:24.934Z,10.55
2022-11-07T23:22:32.064Z,10.00
2022-11-07T23:25:36.962Z,11.63
2022-11-07T23:28:40.054Z,10.57
2022-11-07T23:31:45.452Z,11.30
2022-11-07T23:34:47.643Z,9.77
2022-11-07T23:37:50.233Z,12.88
2022-11-07T23:40:52.480Z,10.82
2022-11-07T23:43:54.681Z,11.23
2022-11-07T23:47:31.898Z,8.88
2022-11-07T23:50:52.796Z,10.52
2022-11-07T23:54:13.879Z,8.93
2022-11-07T23:57:16.114Z,10.80
